Mapleton, Minnesota
Current Conditions -  °F | °C
As of 7:35 PM on Sunday 23 Nov 2014 (Local Time) from KMKT Reporting Station
Overcast Overcast  
Wind Chill: 27°   Ceiling: 2300
Heat Index: 37°   Visibility: 10mi
Dew Point: 30°   Wind: 21mph
Humidity: 75%   Direction: 310°NW
Pressure: 29.41"   Gusts: 28mph
Location:  43.93°N, 93.96°W
Report Text: KMKT 240135Z AUTO 31018G24KT 10SM OVC023 03/M01 A2941 RMK AO1
Loading
Personal Weather Stations






























Interactive Weather Map New forecast layout! Learn more

10-Day Weather Forecast

Advertisements
Track Severe Weather on mobile